ZND weather

Zinder Airport
Zinder, Zinder Region, Niger

Public forecast

Using degrees Celsius for public forecast. Weather courtesy of forecast.io.

METAR (pilot weather report)

Report is more than 6 hours old.

Retrieved 2019/04/18 21:00 UTC (7 hours ago):

DRZR 182100Z 04004KT 2500 DU NSC 30/M01 Q1012

TAF (pilot weather forecast)

Forecast is more than 6 hours old.

Retrieved 2019/04/18 18:21 UTC (10 hours ago):

TAF DRZR 181700Z 1818/1918 04008KT 4500 DU NSC BECMG 1902/1904 2500 TEMPO 1906/1909 1400